createdAt,value
2023-01-05T00:02:29.918Z,63.21
2023-01-05T00:07:33.571Z,63.08
2023-01-05T00:12:37.234Z,62.50
2023-01-05T00:17:40.825Z,62.81
2023-01-05T00:22:53.401Z,62.78
2023-01-05T00:27:56.884Z,62.86
2023-01-05T00:33:00.396Z,62.96
2023-01-05T00:38:03.869Z,63.33
2023-01-05T00:43:06.941Z,62.96
2023-01-05T00:48:10.120Z,63.09
2023-01-05T00:53:13.213Z,62.86
2023-01-05T00:58:16.460Z,63.32
2023-01-05T01:03:20.004Z,63.27
2023-01-05T01:08:24.802Z,63.52
2023-01-05T01:13:28.203Z,63.70
2023-01-05T01:18:32.976Z,63.64
2023-01-05T01:23:38.313Z,63.73
2023-01-05T01:28:42.339Z,63.95
2023-01-05T01:33:45.800Z,63.90
2023-01-05T01:38:49.329Z,63.97
2023-01-05T01:43:55.697Z,63.86
2023-01-05T01:49:08.654Z,63.90
2023-01-05T01:54:16.059Z,63.68
2023-01-05T01:59:19.540Z,63.73
2023-01-05T02:04:25.987Z,63.91
2023-01-05T02:09:29.989Z,63.82
2023-01-05T02:14:58.312Z,63.90
2023-01-05T02:20:24.439Z,63.90
2023-01-05T02:25:49.309Z,63.71
2023-01-05T02:31:09.010Z,63.75
2023-01-05T02:36:28.516Z,63.53
2023-01-05T02:41:44.847Z,63.59
2023-01-05T02:47:28.208Z,63.65
2023-01-05T02:52:45.805Z,63.65
2023-01-05T02:58:02.131Z,63.88
2023-01-05T03:03:22.120Z,63.74
2023-01-05T03:08:32.565Z,64.04
2023-01-05T03:13:43.012Z,64.20
2023-01-05T03:18:53.983Z,64.07
2023-01-05T03:23:58.255Z,63.92
2023-01-05T03:29:03.977Z,63.97
2023-01-05T03:34:26.295Z,63.69
2023-01-05T03:39:31.890Z,64.29
2023-01-05T03:44:40.713Z,64.14
2023-01-05T03:49:48.474Z,64.34
2023-01-05T03:54:54.070Z,64.56
2023-01-05T03:59:57.565Z,64.58
2023-01-05T04:05:01.594Z,64.53
2023-01-05T04:10:07.016Z,64.51
2023-01-05T04:15:11.240Z,64.56
2023-01-05T04:20:14.900Z,64.52
2023-01-05T04:25:19.446Z,64.44
2023-01-05T04:30:24.226Z,64.54
2023-01-05T04:35:27.955Z,64.85
2023-01-05T04:40:32.259Z,64.82
2023-01-05T04:45:36.306Z,64.71
2023-01-05T04:50:43.154Z,64.83
2023-01-05T04:55:48.034Z,64.90
2023-01-05T05:00:51.810Z,65.06
2023-01-05T05:05:55.253Z,64.95
2023-01-05T05:11:00.143Z,64.94
2023-01-05T05:16:06.323Z,65.15
2023-01-05T05:21:11.102Z,64.83
2023-01-05T05:26:16.324Z,65.02
2023-01-05T05:31:22.517Z,65.15
2023-01-05T05:36:26.090Z,64.86
2023-01-05T05:41:29.486Z,65.04
2023-01-05T05:46:32.597Z,64.72
2023-01-05T05:51:36.118Z,64.88
2023-01-05T05:56:39.496Z,64.76
2023-01-05T06:01:42.819Z,63.89
2023-01-05T06:06:46.198Z,64.13
2023-01-05T06:11:49.483Z,63.88
2023-01-05T06:16:52.634Z,63.17
2023-01-05T06:21:55.940Z,63.56
2023-01-05T06:27:00.697Z,63.64
2023-01-05T06:32:04.853Z,63.86
2023-01-05T06:37:08.298Z,64.11
2023-01-05T06:42:11.647Z,63.53
2023-01-05T06:47:14.873Z,63.46
2023-01-05T06:52:17.846Z,63.69
2023-01-05T06:57:21.191Z,63.51
2023-01-05T07:02:24.770Z,63.33
2023-01-05T07:07:28.466Z,63.53
2023-01-05T07:12:32.003Z,63.09
2023-01-05T07:17:35.596Z,63.13
2023-01-05T07:22:39.146Z,63.37
2023-01-05T07:27:44.535Z,63.08
2023-01-05T07:32:49.310Z,62.41
2023-01-05T07:37:52.777Z,62.02
2023-01-05T07:42:57.346Z,62.00
2023-01-05T07:48:00.728Z,62.67
2023-01-05T07:53:04.409Z,62.45
2023-01-05T07:58:07.921Z,62.58
2023-01-05T08:03:12.003Z,62.72
2023-01-05T08:08:22.288Z,62.32
2023-01-05T08:13:27.631Z,62.16
2023-01-05T08:18:31.156Z,62.57
2023-01-05T08:23:35.240Z,62.51
2023-01-05T08:28:40.128Z,62.90
2023-01-05T08:33:44.571Z,62.53
2023-01-05T08:38:51.145Z,61.71
2023-01-05T08:43:59.901Z,61.09
2023-01-05T08:49:06.618Z,60.79
2023-01-05T08:54:10.131Z,61.64
2023-01-05T08:59:15.037Z,61.59
2023-01-05T09:04:18.654Z,62.18
2023-01-05T09:09:23.066Z,61.98
2023-01-05T09:14:27.223Z,61.98
2023-01-05T09:19:30.937Z,61.83
2023-01-05T09:24:34.421Z,61.71
2023-01-05T09:29:37.723Z,61.44
2023-01-05T09:34:41.280Z,61.27
2023-01-05T09:39:44.838Z,60.80
2023-01-05T09:44:59.109Z,59.81
2023-01-05T09:50:07.343Z,59.77
2023-01-05T09:55:18.635Z,60.09
2023-01-05T10:00:23.244Z,60.23
2023-01-05T10:05:28.248Z,59.73
2023-01-05T10:11:05.505Z,59.33
2023-01-05T10:16:16.832Z,58.85
2023-01-05T10:22:05.134Z,59.00
2023-01-05T10:27:41.674Z,59.84
2023-01-05T10:38:55.651Z,59.84
2023-01-05T10:44:48.570Z,59.53
2023-01-05T10:49:52.064Z,59.63
2023-01-05T10:55:00.851Z,59.30
2023-01-05T11:00:13.287Z,59.32
2023-01-05T11:05:27.982Z,58.93
2023-01-05T11:10:35.249Z,58.88
2023-01-05T11:15:44.409Z,58.36
2023-01-05T11:21:07.506Z,59.01
2023-01-05T11:26:18.245Z,58.69
2023-01-05T11:31:22.110Z,58.77
2023-01-05T11:36:26.697Z,58.70
2023-01-05T11:41:30.308Z,57.88
2023-01-05T11:46:43.172Z,58.06
2023-01-05T11:51:46.483Z,57.88
2023-01-05T11:56:53.278Z,57.73
2023-01-05T12:02:26.053Z,57.89
2023-01-05T12:07:36.440Z,57.45
2023-01-05T12:13:10.350Z,57.36
2023-01-05T12:18:22.633Z,58.08
2023-01-05T12:23:39.418Z,57.71
2023-01-05T12:28:42.798Z,57.86
2023-01-05T12:34:08.512Z,58.07
2023-01-05T12:39:34.876Z,57.83
2023-01-05T12:44:53.210Z,57.81
2023-01-05T12:50:03.356Z,57.77
2023-01-05T12:55:18.575Z,57.97
2023-01-05T13:00:30.211Z,58.37
2023-01-05T13:05:36.120Z,58.32
2023-01-05T13:10:57.543Z,58.30
2023-01-05T13:16:05.545Z,58.65
2023-01-05T13:21:14.853Z,58.40
2023-01-05T13:26:20.966Z,58.59
2023-01-05T13:31:39.458Z,59.14
2023-01-05T13:37:08.031Z,59.10
2023-01-05T13:42:48.749Z,58.94
2023-01-05T13:48:13.083Z,58.41
2023-01-05T13:58:43.323Z,58.21
2023-01-05T14:03:55.324Z,58.38
2023-01-05T14:09:13.208Z,58.57
2023-01-05T14:19:38.231Z,58.52
2023-01-05T14:24:42.566Z,58.95
2023-01-05T14:35:19.252Z,59.37
2023-01-05T14:40:31.865Z,59.53
2023-01-05T14:45:39.709Z,59.31
2023-01-05T14:50:44.009Z,59.81
2023-01-05T14:55:53.110Z,59.94
2023-01-05T15:01:02.494Z,59.92
2023-01-05T15:06:15.992Z,60.53
2023-01-05T15:11:19.434Z,60.35
2023-01-05T15:16:44.860Z,60.33
2023-01-05T15:22:13.381Z,60.28
2023-01-05T15:27:27.745Z,60.41
2023-01-05T15:32:40.846Z,60.35
2023-01-05T15:37:45.549Z,60.44
2023-01-05T15:42:54.979Z,60.58
2023-01-05T15:48:09.135Z,60.74
2023-01-05T15:53:35.003Z,60.86
2023-01-05T15:58:46.189Z,60.70
2023-01-05T16:03:50.289Z,60.72
2023-01-05T16:08:56.624Z,61.30
2023-01-05T16:14:23.239Z,60.88
2023-01-05T16:19:44.925Z,61.15
2023-01-05T16:24:58.681Z,61.59
2023-01-05T16:30:26.992Z,61.54
2023-01-05T16:35:45.794Z,61.90
2023-01-05T16:40:50.255Z,62.36
2023-01-05T16:45:55.186Z,61.96
2023-01-05T16:51:01.052Z,62.41
2023-01-05T16:56:33.774Z,62.50
2023-01-05T17:01:45.465Z,62.37
2023-01-05T17:06:53.184Z,62.58
2023-01-05T17:11:59.097Z,62.93
2023-01-05T17:17:03.613Z,63.05
2023-01-05T17:22:11.570Z,62.94
2023-01-05T17:27:18.691Z,63.27
2023-01-05T17:32:23.490Z,63.18
2023-01-05T17:37:29.838Z,63.28
2023-01-05T17:42:33.789Z,63.38
2023-01-05T17:47:37.268Z,63.30
2023-01-05T17:52:41.181Z,63.25
2023-01-05T17:57:44.891Z,63.96
2023-01-05T18:02:50.275Z,63.73
2023-01-05T18:07:53.660Z,64.00
2023-01-05T18:12:57.024Z,63.68
2023-01-05T18:18:02.595Z,63.29
2023-01-05T18:28:10.627Z,63.44
2023-01-05T18:33:15.323Z,63.82
2023-01-05T18:38:18.847Z,63.83
2023-01-05T18:43:22.617Z,63.36
2023-01-05T18:48:26.131Z,63.59
2023-01-05T18:53:32.207Z,63.63
2023-01-05T18:58:35.580Z,63.89
2023-01-05T19:03:39.204Z,63.68
2023-01-05T19:08:43.317Z,63.66
2023-01-05T19:13:47.390Z,63.61
2023-01-05T19:18:54.892Z,63.79
2023-01-05T19:24:00.479Z,64.02
2023-01-05T19:29:05.051Z,64.10
2023-01-05T19:34:09.482Z,64.17
2023-01-05T19:39:21.574Z,64.10
2023-01-05T19:44:26.956Z,64.32
2023-01-05T19:49:32.193Z,63.65
2023-01-05T19:54:35.597Z,63.83
2023-01-05T19:59:43.057Z,64.29
2023-01-05T20:04:47.597Z,64.15
2023-01-05T20:09:54.183Z,64.26
2023-01-05T20:14:58.879Z,64.23
2023-01-05T20:20:03.010Z,64.38
2023-01-05T20:25:08.059Z,64.27
2023-01-05T20:30:12.285Z,64.27
2023-01-05T20:35:15.844Z,64.07
2023-01-05T20:40:19.262Z,63.85
2023-01-05T20:45:22.689Z,63.88
2023-01-05T20:50:27.742Z,63.80
2023-01-05T20:55:32.079Z,63.81
2023-01-05T21:00:35.797Z,63.83
2023-01-05T21:06:05.187Z,63.86
2023-01-05T21:11:17.947Z,64.06
2023-01-05T21:16:55.596Z,63.68
2023-01-05T21:21:59.127Z,63.69
2023-01-05T21:27:02.695Z,63.64
2023-01-05T21:32:07.456Z,63.54
2023-01-05T21:37:11.369Z,63.46
2023-01-05T21:42:15.110Z,63.92
2023-01-05T21:47:18.532Z,63.66
2023-01-05T21:52:21.918Z,63.65
2023-01-05T21:57:25.005Z,63.63
2023-01-05T22:02:28.237Z,63.52
2023-01-05T22:07:32.064Z,63.78
2023-01-05T22:12:35.900Z,63.67
2023-01-05T22:17:39.008Z,63.58
2023-01-05T22:22:41.953Z,63.11
2023-01-05T22:27:45.037Z,63.01
2023-01-05T22:32:48.185Z,63.23
2023-01-05T22:37:51.337Z,63.31
2023-01-05T22:42:55.052Z,63.11
2023-01-05T22:47:58.251Z,62.77
2023-01-05T22:53:01.460Z,62.75
2023-01-05T22:58:04.522Z,62.70
2023-01-05T23:03:09.677Z,62.90
2023-01-05T23:08:15.412Z,63.17
2023-01-05T23:13:18.512Z,62.83
2023-01-05T23:18:21.737Z,62.90
2023-01-05T23:23:25.068Z,62.76
2023-01-05T23:28:29.487Z,62.89
2023-01-05T23:33:35.304Z,63.04
2023-01-05T23:38:39.041Z,62.86
2023-01-05T23:43:43.161Z,63.11
2023-01-05T23:48:46.505Z,63.17
2023-01-05T23:53:52.134Z,63.52
2023-01-05T23:59:05.308Z,63.52
